createdAt,value
2018-12-02T00:00:57.105Z,79.30
2018-12-02T00:03:25.658Z,79.50
2018-12-02T00:05:54.156Z,79.70
2018-12-02T00:08:22.612Z,79.40
2018-12-02T00:10:51.086Z,79.40
2018-12-02T00:13:19.631Z,79.30
2018-12-02T00:15:48.079Z,79.30
2018-12-02T00:18:16.577Z,79.20
2018-12-02T00:20:45.055Z,79.40
2018-12-02T00:23:13.508Z,79.50
2018-12-02T00:25:41.988Z,79.40
2018-12-02T00:28:11.183Z,79.00
2018-12-02T00:30:40.616Z,79.40
2018-12-02T00:33:09.171Z,79.30
2018-12-02T00:35:37.686Z,79.30
2018-12-02T00:38:07.880Z,79.20
2018-12-02T00:40:36.387Z,79.50
2018-12-02T00:43:06.423Z,79.90
2018-12-02T00:45:36.155Z,79.50
2018-12-02T00:48:06.471Z,79.50
2018-12-02T00:50:35.097Z,79.30
2018-12-02T00:53:03.693Z,79.30
2018-12-02T00:55:36.720Z,79.50
2018-12-02T00:58:05.483Z,79.60
2018-12-02T01:00:33.987Z,79.70
2018-12-02T01:03:02.442Z,79.80
2018-12-02T01:05:30.929Z,79.60
2018-12-02T01:07:59.503Z,79.50
2018-12-02T01:10:27.988Z,79.70
2018-12-02T01:12:58.399Z,79.50
2018-12-02T01:15:28.968Z,79.70
2018-12-02T01:17:57.455Z,79.70
2018-12-02T01:20:25.950Z,79.30
2018-12-02T01:22:54.427Z,79.50
2018-12-02T01:25:22.879Z,79.50
2018-12-02T01:27:51.802Z,79.50
2018-12-02T01:30:22.631Z,79.60
2018-12-02T01:32:52.174Z,79.60
2018-12-02T01:35:20.712Z,79.60
2018-12-02T01:37:49.297Z,79.70
2018-12-02T01:40:20.652Z,79.20
2018-12-02T01:42:49.719Z,79.50
2018-12-02T01:45:23.979Z,79.20
2018-12-02T01:47:53.133Z,78.70
2018-12-02T01:50:22.761Z,78.60
2018-12-02T01:52:53.191Z,78.80
2018-12-02T01:55:21.638Z,78.90
2018-12-02T01:57:50.119Z,79.30
2018-12-02T02:00:20.737Z,79.40
2018-12-02T02:02:49.440Z,79.00
2018-12-02T02:05:18.984Z,79.40
2018-12-02T02:07:47.488Z,79.50
2018-12-02T02:10:19.007Z,79.30
2018-12-02T02:12:47.448Z,79.10
2018-12-02T02:15:17.525Z,78.90
2018-12-02T02:17:46.288Z,78.90
2018-12-02T02:20:15.828Z,79.00
2018-12-02T02:22:44.890Z,79.40
2018-12-02T02:25:14.560Z,79.50
2018-12-02T02:27:44.210Z,79.40
2018-12-02T02:30:14.843Z,79.40
2018-12-02T02:32:43.447Z,79.40
2018-12-02T02:35:12.444Z,79.30
2018-12-02T02:37:41.299Z,79.50
2018-12-02T02:40:19.619Z,79.60
2018-12-02T02:42:48.093Z,79.70
2018-12-02T02:45:16.810Z,79.50
2018-12-02T02:47:45.380Z,79.60
2018-12-02T02:50:15.064Z,79.40
2018-12-02T02:52:45.112Z,79.50
2018-12-02T02:55:13.616Z,80.20
2018-12-02T02:57:42.213Z,79.60
2018-12-02T03:00:18.423Z,79.70
2018-12-02T03:02:46.993Z,79.50
2018-12-02T03:05:16.107Z,79.70
2018-12-02T03:07:44.923Z,79.70
2018-12-02T03:10:16.397Z,79.70
2018-12-02T03:12:47.683Z,79.60
2018-12-02T03:15:20.080Z,79.70
2018-12-02T03:17:48.608Z,80.40
2018-12-02T03:20:18.150Z,79.70
2018-12-02T03:22:52.491Z,79.80
2018-12-02T03:25:22.076Z,79.90
2018-12-02T03:27:50.639Z,80.00
2018-12-02T03:30:22.653Z,79.80
2018-12-02T03:32:51.224Z,79.60
2018-12-02T03:35:24.600Z,79.70
2018-12-02T03:37:53.803Z,79.80
2018-12-02T03:40:24.544Z,80.00
2018-12-02T03:42:53.716Z,80.00
2018-12-02T03:45:24.267Z,80.10
2018-12-02T03:47:52.856Z,80.10
2018-12-02T03:50:22.336Z,79.70
2018-12-02T03:52:50.914Z,79.80
2018-12-02T03:55:19.534Z,79.70
2018-12-02T03:57:48.120Z,79.90
2018-12-02T04:00:18.554Z,79.80
2018-12-02T04:02:47.261Z,79.70
2018-12-02T04:05:16.900Z,79.60
2018-12-02T04:07:45.404Z,79.50
2018-12-02T04:10:14.845Z,79.60
2018-12-02T04:12:43.665Z,79.30
2018-12-02T04:15:19.784Z,79.50
2018-12-02T04:17:48.259Z,79.70
2018-12-02T04:20:18.656Z,80.40
2018-12-02T04:22:49.245Z,79.70
2018-12-02T04:25:32.642Z,79.40
2018-12-02T04:28:01.112Z,79.60
2018-12-02T04:30:29.611Z,79.70
2018-12-02T04:32:58.095Z,79.70
2018-12-02T04:35:27.107Z,79.70
2018-12-02T04:38:58.584Z,79.60
2018-12-02T04:41:27.071Z,79.10
2018-12-02T04:43:55.650Z,79.40
2018-12-02T04:46:24.140Z,79.40
2018-12-02T04:48:53.470Z,79.30
2018-12-02T04:51:22.085Z,79.30
2018-12-02T04:53:50.843Z,79.40
2018-12-02T04:56:19.550Z,79.30
2018-12-02T04:58:49.077Z,79.30
2018-12-02T05:01:17.750Z,79.10
2018-12-02T05:03:46.265Z,79.20
2018-12-02T05:06:14.756Z,79.20
2018-12-02T05:08:43.300Z,79.40
2018-12-02T05:11:11.735Z,80.10
2018-12-02T05:16:02.435Z,79.30
2018-12-02T05:18:30.865Z,79.50
2018-12-02T05:21:00.351Z,79.40
2018-12-02T05:23:28.795Z,79.10
2018-12-02T05:25:57.618Z,79.00
2018-12-02T05:28:26.097Z,78.70
2018-12-02T05:30:54.602Z,78.70
2018-12-02T05:33:23.137Z,78.30
2018-12-02T05:35:51.621Z,78.60
2018-12-02T05:38:20.115Z,78.50
2018-12-02T05:40:48.703Z,78.30
2018-12-02T05:43:17.203Z,77.90
2018-12-02T05:45:45.704Z,77.70
2018-12-02T05:48:14.187Z,77.30
2018-12-02T05:50:42.669Z,77.00
2018-12-02T05:53:11.150Z,76.90
2018-12-02T05:55:39.636Z,77.00
2018-12-02T05:58:08.102Z,77.00
2018-12-02T06:00:36.592Z,76.50
2018-12-02T06:03:05.624Z,76.40
2018-12-02T06:05:34.099Z,76.70
2018-12-02T06:08:02.571Z,76.70
2018-12-02T06:10:31.051Z,76.80
2018-12-02T06:12:59.575Z,76.80
2018-12-02T06:15:28.009Z,76.90
2018-12-02T06:17:56.501Z,77.20
2018-12-02T06:20:25.959Z,77.30
2018-12-02T06:22:57.210Z,77.30
2018-12-02T06:25:25.759Z,77.40
2018-12-02T06:27:54.323Z,77.30
2018-12-02T06:30:23.994Z,76.90
2018-12-02T06:32:57.705Z,76.60
2018-12-02T06:35:26.196Z,76.50
2018-12-02T06:37:55.667Z,76.80
2018-12-02T06:40:25.171Z,77.00
2018-12-02T06:42:53.660Z,76.80
2018-12-02T06:45:22.565Z,77.10
2018-12-02T06:47:51.103Z,77.20
2018-12-02T06:50:21.758Z,76.90
2018-12-02T06:52:50.436Z,77.20
2018-12-02T06:56:25.941Z,77.20
2018-12-02T06:59:10.422Z,77.30
2018-12-02T07:02:49.191Z,77.80
2018-12-02T07:05:23.683Z,77.00
2018-12-02T07:07:53.232Z,77.40
2018-12-02T07:10:22.667Z,77.70
2018-12-02T07:12:51.503Z,77.20
2018-12-02T07:15:20.234Z,76.70
2018-12-02T07:17:53.101Z,77.10
2018-12-02T07:20:25.355Z,76.70
2018-12-02T07:22:56.448Z,77.10
2018-12-02T07:25:29.828Z,76.80
2018-12-02T07:27:58.388Z,76.40
2018-12-02T07:30:26.921Z,76.70
2018-12-02T07:32:55.706Z,77.00
2018-12-02T07:35:25.248Z,76.70
2018-12-02T07:37:55.956Z,76.70
2018-12-02T07:40:33.771Z,76.60
2018-12-02T07:43:03.248Z,76.70
2018-12-02T07:45:33.933Z,76.90
2018-12-02T07:48:01.332Z,77.20
2018-12-02T07:50:29.844Z,77.30
2018-12-02T07:52:59.379Z,77.40
2018-12-02T07:55:28.823Z,77.80
2018-12-02T07:57:57.344Z,77.90
2018-12-02T08:00:27.616Z,77.40
2018-12-02T08:02:56.212Z,77.20
2018-12-02T08:05:25.719Z,76.90
2018-12-02T08:07:54.270Z,77.10
2018-12-02T08:10:26.314Z,76.60
2018-12-02T08:12:54.896Z,76.80
2018-12-02T08:15:23.448Z,77.00
2018-12-02T08:17:51.983Z,77.00
2018-12-02T08:20:21.440Z,76.80
2018-12-02T08:22:51.520Z,76.80
2018-12-02T08:25:19.319Z,77.50
2018-12-02T08:27:49.243Z,77.10
2018-12-02T08:30:22.607Z,77.00
2018-12-02T08:32:51.173Z,77.10
2018-12-02T08:35:23.063Z,76.40
2018-12-02T08:37:55.979Z,76.20
2018-12-02T08:40:25.452Z,76.40
2018-12-02T08:42:53.927Z,76.30
2018-12-02T08:45:22.459Z,76.30
2018-12-02T08:47:50.992Z,76.40
2018-12-02T08:50:21.165Z,76.70
2018-12-02T08:52:51.632Z,76.80
2018-12-02T08:55:21.039Z,76.90
2018-12-02T08:57:50.880Z,76.50
2018-12-02T09:00:21.549Z,76.40
2018-12-02T09:02:52.672Z,76.60
2018-12-02T09:05:21.176Z,76.60
2018-12-02T09:07:49.845Z,76.40
2018-12-02T09:10:33.751Z,76.30
2018-12-02T09:13:03.816Z,76.30
2018-12-02T09:15:32.372Z,75.80
2018-12-02T09:18:01.016Z,75.30
2018-12-02T09:20:32.911Z,75.40
2018-12-02T09:23:02.736Z,75.60
2018-12-02T09:25:31.218Z,76.20
2018-12-02T09:27:59.701Z,74.90
2018-12-02T09:30:29.275Z,74.80
2018-12-02T09:32:57.785Z,75.20
2018-12-02T09:35:26.580Z,75.00
2018-12-02T09:37:55.204Z,75.00
2018-12-02T09:40:23.653Z,75.30
2018-12-02T09:42:53.459Z,75.30
2018-12-02T09:45:26.377Z,75.70
2018-12-02T09:47:59.105Z,75.90
2018-12-02T09:50:28.927Z,76.00
2018-12-02T09:52:57.407Z,76.40
2018-12-02T09:55:30.207Z,76.10
2018-12-02T09:57:58.903Z,75.50
2018-12-02T10:00:33.906Z,74.80
2018-12-02T10:02:57.073Z,75.00
2018-12-02T10:05:26.709Z,74.90
2018-12-02T10:07:55.224Z,74.70
2018-12-02T10:10:23.855Z,74.90
2018-12-02T10:12:57.689Z,74.60
2018-12-02T10:15:26.303Z,74.10
2018-12-02T10:17:54.784Z,74.50
2018-12-02T10:20:23.288Z,74.70
2018-12-02T10:22:51.803Z,75.00
2018-12-02T10:25:20.487Z,74.60
2018-12-02T10:27:48.992Z,74.20
2018-12-02T10:30:21.471Z,74.00
2018-12-02T10:32:50.536Z,74.20
2018-12-02T10:35:19.045Z,74.30
2018-12-02T10:37:48.987Z,74.50
2018-12-02T10:40:18.652Z,74.20
2018-12-02T10:42:47.502Z,73.60
2018-12-02T10:45:19.185Z,73.10
2018-12-02T10:47:48.032Z,72.10
2018-12-02T10:50:25.291Z,72.20
2018-12-02T10:52:54.981Z,71.60
2018-12-02T10:55:42.352Z,71.60
2018-12-02T10:58:14.213Z,71.70
2018-12-02T11:00:49.132Z,71.60
2018-12-02T11:03:17.692Z,71.60
2018-12-02T11:05:46.234Z,71.50
2018-12-02T11:08:14.699Z,71.50
2018-12-02T11:10:43.239Z,71.70
2018-12-02T11:13:11.859Z,71.40
2018-12-02T11:15:40.755Z,71.50
2018-12-02T11:18:11.000Z,71.80
2018-12-02T11:20:39.520Z,71.80
2018-12-02T11:23:08.597Z,71.90
2018-12-02T11:25:37.308Z,71.60
2018-12-02T11:28:06.800Z,71.70
2018-12-02T11:30:35.276Z,71.80
2018-12-02T11:33:03.791Z,72.00
2018-12-02T11:35:32.226Z,72.90
2018-12-02T11:38:00.687Z,73.00
2018-12-02T11:40:29.155Z,72.50
2018-12-02T11:42:57.579Z,73.30
2018-12-02T11:45:26.112Z,72.20
2018-12-02T11:47:55.236Z,72.40
2018-12-02T11:50:25.067Z,73.00
2018-12-02T11:52:54.508Z,72.40
2018-12-02T11:55:23.496Z,72.20
2018-12-02T11:57:52.064Z,72.50
2018-12-02T12:00:24.479Z,72.20
2018-12-02T12:02:53.467Z,73.30
2018-12-02T12:05:21.982Z,73.30
2018-12-02T12:07:50.903Z,73.90
2018-12-02T12:10:21.464Z,73.70
2018-12-02T12:12:50.878Z,74.20
2018-12-02T12:15:20.728Z,74.10
2018-12-02T12:17:49.204Z,74.80
2018-12-02T12:20:20.971Z,74.90
2018-12-02T12:22:53.617Z,76.00
2018-12-02T12:25:26.772Z,75.40
2018-12-02T12:28:01.195Z,75.60
2018-12-02T12:30:32.603Z,75.40
2018-12-02T12:33:07.310Z,75.30
2018-12-02T12:35:36.736Z,75.40
2018-12-02T12:38:07.131Z,75.10
2018-12-02T12:40:41.880Z,75.40
2018-12-02T12:43:20.459Z,75.00
2018-12-02T12:48:49.544Z,75.10
2018-12-02T12:51:25.155Z,75.60
2018-12-02T12:54:03.967Z,75.60
2018-12-02T12:56:34.592Z,76.10
2018-12-02T12:59:07.879Z,74.70
2018-12-02T13:01:38.342Z,75.00
2018-12-02T13:04:06.848Z,75.10
2018-12-02T13:06:40.423Z,75.30
2018-12-02T13:12:03.672Z,75.50
2018-12-02T13:14:40.096Z,75.50
2018-12-02T13:17:10.646Z,76.00
2018-12-02T13:19:39.116Z,75.70
2018-12-02T13:22:07.647Z,75.90
2018-12-02T13:24:36.127Z,75.70
2018-12-02T13:27:04.623Z,76.00
2018-12-02T13:29:33.111Z,76.00
2018-12-02T13:32:01.588Z,77.20
2018-12-02T13:34:30.140Z,76.60
2018-12-02T13:36:58.624Z,76.80
2018-12-02T13:39:30.924Z,76.30
2018-12-02T13:41:59.402Z,76.10
2018-12-02T13:44:27.898Z,75.50
2018-12-02T13:46:56.344Z,75.60
2018-12-02T13:49:28.075Z,75.50
2018-12-02T13:51:57.564Z,75.30
2018-12-02T13:54:31.168Z,75.50
2018-12-02T13:57:03.639Z,76.00
2018-12-02T13:59:32.124Z,76.40
2018-12-02T14:02:00.619Z,76.60
2018-12-02T14:04:30.176Z,77.00
2018-12-02T14:07:03.143Z,76.90
2018-12-02T14:09:33.076Z,77.00
2018-12-02T14:12:02.634Z,77.00
2018-12-02T14:14:35.484Z,77.30
2018-12-02T14:17:10.136Z,77.20
2018-12-02T14:19:39.383Z,76.90
2018-12-02T14:22:11.541Z,77.60
2018-12-02T14:24:40.018Z,76.90
2018-12-02T14:27:09.496Z,76.80
2018-12-02T14:29:45.943Z,77.00
2018-12-02T14:32:20.087Z,76.90
2018-12-02T14:34:48.667Z,77.40
2018-12-02T14:37:17.534Z,77.70
2018-12-02T14:39:46.056Z,77.70
2018-12-02T14:42:14.504Z,77.70
2018-12-02T14:44:43.231Z,77.80
2018-12-02T14:47:11.911Z,77.60
2018-12-02T14:49:40.367Z,77.50
2018-12-02T14:52:08.884Z,77.50
2018-12-02T14:54:37.601Z,77.50
2018-12-02T14:57:06.208Z,77.60
2018-12-02T14:59:34.836Z,77.70
2018-12-02T15:02:03.403Z,77.70
2018-12-02T15:04:31.921Z,77.60
2018-12-02T15:07:00.441Z,77.30
2018-12-02T15:09:32.782Z,77.30
2018-12-02T15:12:01.252Z,77.30
2018-12-02T15:14:29.765Z,77.60
2018-12-02T15:16:58.211Z,77.60
2018-12-02T15:19:27.008Z,77.50
2018-12-02T15:21:55.511Z,77.60
2018-12-02T15:24:29.707Z,77.60
2018-12-02T15:26:58.295Z,77.40
2018-12-02T15:29:26.755Z,77.70
2018-12-02T15:31:55.304Z,77.90
2018-12-02T15:34:23.794Z,77.80
2018-12-02T15:36:52.292Z,77.70
2018-12-02T15:39:20.813Z,77.80
2018-12-02T15:41:49.296Z,77.50
2018-12-02T15:44:17.823Z,77.30
2018-12-02T15:46:46.300Z,77.20
2018-12-02T15:49:14.744Z,77.10
2018-12-02T15:51:43.221Z,77.60
2018-12-02T15:54:11.673Z,77.60
2018-12-02T15:56:40.156Z,78.00
2018-12-02T15:59:09.056Z,78.50
2018-12-02T16:01:38.192Z,78.70
2018-12-02T16:04:06.665Z,78.80
2018-12-02T16:09:09.998Z,78.80
2018-12-02T16:11:38.508Z,79.20
2018-12-02T16:14:07.334Z,79.30
2018-12-02T16:16:35.840Z,79.00
2018-12-02T16:19:04.344Z,78.80
2018-12-02T16:21:32.827Z,78.60
2018-12-02T16:24:01.377Z,78.40
2018-12-02T16:26:29.811Z,78.30
2018-12-02T16:28:58.292Z,78.30
2018-12-02T16:31:26.860Z,79.00
2018-12-02T16:33:55.460Z,78.10
2018-12-02T16:36:23.955Z,77.90
2018-12-02T16:38:52.498Z,77.80
2018-12-02T16:41:22.176Z,77.80
2018-12-02T16:43:50.612Z,78.00
2018-12-02T16:46:19.251Z,77.70
2018-12-02T16:48:47.712Z,77.50
2018-12-02T16:51:16.196Z,77.70
2018-12-02T16:53:44.647Z,77.70
2018-12-02T16:56:15.167Z,77.80
2018-12-02T16:58:50.635Z,77.70
2018-12-02T17:01:23.698Z,77.80
2018-12-02T17:03:55.479Z,77.80
2018-12-02T17:06:23.952Z,77.80
2018-12-02T17:08:53.177Z,78.10
2018-12-02T17:11:21.724Z,78.20
2018-12-02T17:13:51.249Z,78.60
2018-12-02T17:16:19.808Z,78.50
2018-12-02T17:18:49.321Z,78.30
2018-12-02T17:21:18.877Z,78.60
2018-12-02T17:23:47.319Z,79.10
2018-12-02T17:26:15.791Z,79.20
2018-12-02T17:28:44.355Z,79.00
2018-12-02T17:31:18.011Z,79.00
2018-12-02T17:33:46.450Z,79.10
2018-12-02T17:36:14.935Z,79.50
2018-12-02T17:38:43.609Z,79.60
2018-12-02T17:41:13.671Z,79.50
2018-12-02T17:43:42.179Z,79.60
2018-12-02T17:46:10.704Z,80.00
2018-12-02T17:48:39.248Z,80.30
2018-12-02T17:51:08.516Z,80.40
2018-12-02T17:53:38.495Z,80.60
2018-12-02T17:56:07.299Z,80.50
2018-12-02T17:58:35.786Z,81.20
2018-12-02T18:01:04.497Z,80.90
2018-12-02T18:03:33.883Z,81.10
2018-12-02T18:06:02.340Z,81.30
2018-12-02T18:08:31.084Z,81.30
2018-12-02T18:10:59.779Z,81.20
2018-12-02T18:13:29.259Z,81.10
2018-12-02T18:15:58.203Z,81.60
2018-12-02T18:18:27.883Z,81.20
2018-12-02T18:20:56.636Z,81.20
2018-12-02T18:23:25.423Z,81.00
2018-12-02T18:25:54.105Z,80.90
2018-12-02T18:28:22.824Z,81.00
2018-12-02T18:30:51.749Z,81.20
2018-12-02T18:33:21.588Z,81.10
2018-12-02T18:35:53.891Z,81.20
2018-12-02T18:38:23.887Z,81.80
2018-12-02T18:40:56.820Z,81.30
2018-12-02T18:43:25.879Z,81.20
2018-12-02T18:45:54.691Z,81.20
2018-12-02T18:48:23.580Z,81.30
2018-12-02T18:50:53.143Z,81.10
2018-12-02T18:53:21.907Z,81.00
2018-12-02T18:55:50.557Z,81.00
2018-12-02T18:58:19.273Z,80.90
2018-12-02T19:00:48.990Z,81.10
2018-12-02T19:03:19.620Z,81.10
2018-12-02T19:05:49.463Z,81.10
2018-12-02T19:08:18.055Z,81.20
2018-12-02T19:10:49.148Z,81.20
2018-12-02T19:13:17.744Z,81.20
2018-12-02T19:15:46.491Z,82.00
2018-12-02T19:18:15.245Z,81.20
2018-12-02T19:20:44.023Z,81.20
2018-12-02T19:23:22.632Z,81.50
2018-12-02T19:25:51.600Z,81.30
2018-12-02T19:28:20.338Z,81.70
2018-12-02T19:30:50.028Z,81.70
2018-12-02T19:33:21.700Z,81.80
2018-12-02T19:35:51.881Z,81.80
2018-12-02T19:38:22.419Z,81.80
2018-12-02T19:40:51.687Z,82.20
2018-12-02T19:43:20.679Z,81.90
2018-12-02T19:45:52.155Z,81.90
2018-12-02T19:48:22.232Z,81.80
2018-12-02T19:50:51.143Z,81.90
2018-12-02T19:53:20.024Z,81.80
2018-12-02T19:55:49.367Z,81.90
2018-12-02T19:58:18.148Z,81.90
2018-12-02T20:00:47.418Z,82.10
2018-12-02T20:03:17.244Z,82.20
2018-12-02T20:05:48.860Z,82.20
2018-12-02T20:08:17.735Z,82.30
2018-12-02T20:10:48.404Z,82.10
2018-12-02T20:13:18.546Z,82.40
2018-12-02T20:15:53.465Z,82.40
2018-12-02T20:18:24.205Z,82.30
2018-12-02T20:20:57.730Z,82.30
2018-12-02T20:23:31.815Z,82.30
2018-12-02T20:26:02.416Z,82.20
2018-12-02T20:28:36.971Z,82.10
2018-12-02T20:31:10.304Z,82.00
2018-12-02T20:33:39.196Z,82.00
2018-12-02T20:36:08.524Z,82.30
2018-12-02T20:38:37.204Z,82.20
2018-12-02T20:41:06.047Z,82.10
2018-12-02T20:43:34.860Z,82.10
2018-12-02T20:46:03.567Z,82.50
2018-12-02T20:48:33.907Z,82.70
2018-12-02T20:51:02.452Z,82.80
2018-12-02T20:53:31.021Z,83.10
2018-12-02T20:55:59.635Z,82.80
2018-12-02T20:58:28.307Z,83.40
2018-12-02T21:00:56.993Z,83.50
2018-12-02T21:03:28.445Z,83.50
2018-12-02T21:06:05.186Z,83.70
2018-12-02T21:08:33.708Z,83.90
2018-12-02T21:11:02.356Z,84.20
2018-12-02T21:13:31.032Z,84.00
2018-12-02T21:15:59.686Z,83.80
2018-12-02T21:18:28.163Z,84.00
2018-12-02T21:20:56.644Z,84.30
2018-12-02T21:23:25.155Z,84.40
2018-12-02T21:25:53.692Z,84.30
2018-12-02T21:28:24.219Z,84.40
2018-12-02T21:30:52.731Z,84.20
2018-12-02T21:33:21.172Z,84.20
2018-12-02T21:35:50.182Z,83.90
2018-12-02T21:38:18.650Z,83.90
2018-12-02T21:40:47.093Z,83.80
2018-12-02T21:43:15.580Z,83.60
2018-12-02T21:45:44.075Z,83.50
2018-12-02T21:48:14.277Z,83.30
2018-12-02T21:50:43.758Z,83.30
2018-12-02T21:53:12.213Z,83.30
2018-12-02T21:55:40.660Z,83.40
2018-12-02T21:58:09.135Z,83.20
2018-12-02T22:00:42.893Z,83.80
2018-12-02T22:03:11.349Z,83.10
2018-12-02T22:05:39.824Z,83.30
2018-12-02T22:08:09.339Z,83.30
2018-12-02T22:10:37.958Z,83.10
2018-12-02T22:13:06.668Z,83.10
2018-12-02T22:15:35.139Z,83.10
2018-12-02T22:18:03.629Z,83.40
2018-12-02T22:20:32.081Z,83.30
2018-12-02T22:23:00.568Z,83.40
2018-12-02T22:25:29.075Z,83.50
2018-12-02T22:27:57.647Z,83.70
2018-12-02T22:30:26.451Z,83.60
2018-12-02T22:32:54.927Z,83.60
2018-12-02T22:35:23.386Z,83.60
2018-12-02T22:37:51.885Z,83.70
2018-12-02T22:40:25.477Z,83.70
2018-12-02T22:42:55.087Z,83.80
2018-12-02T22:45:26.699Z,83.70
2018-12-02T22:47:55.300Z,83.70
2018-12-02T22:50:31.031Z,83.80
2018-12-02T22:53:00.387Z,83.80
2018-12-02T22:55:28.872Z,84.10
2018-12-02T22:57:57.353Z,84.30
2018-12-02T23:00:34.399Z,84.30
2018-12-02T23:03:05.060Z,84.40
2018-12-02T23:05:33.855Z,85.20
2018-12-02T23:08:02.684Z,84.40
2018-12-02T23:10:31.314Z,84.30
2018-12-02T23:12:59.855Z,84.20
2018-12-02T23:15:28.503Z,84.10
2018-12-02T23:17:57.092Z,84.10
2018-12-02T23:20:25.620Z,83.80
2018-12-02T23:22:54.088Z,83.80
2018-12-02T23:25:22.584Z,84.10
2018-12-02T23:27:51.331Z,84.10
2018-12-02T23:30:24.405Z,83.90
2018-12-02T23:32:52.972Z,83.90
2018-12-02T23:35:21.576Z,83.80
2018-12-02T23:37:50.223Z,83.70
2018-12-02T23:40:21.326Z,84.00
2018-12-02T23:42:50.089Z,84.10
2018-12-02T23:45:19.182Z,83.90
2018-12-02T23:47:47.927Z,83.90
2018-12-02T23:50:18.494Z,83.80
2018-12-02T23:52:47.105Z,83.70
2018-12-02T23:55:16.856Z,83.60
2018-12-02T23:57:45.611Z,83.60
